sensor_id;sensor_type;location;lat;lon;timestamp;P1;durP1;ratioP1;P2;durP2;ratioP2
55732;SDS011;41637;52.364;9.910;2023-12-04T00:01:14;20.60;;;17.27;;
55732;SDS011;41637;52.364;9.910;2023-12-04T00:03:42;21.57;;;17.50;;
55732;SDS011;41637;52.364;9.910;2023-12-04T00:06:10;21.83;;;17.88;;
55732;SDS011;41637;52.364;9.910;2023-12-04T00:08:38;20.10;;;17.40;;
55732;SDS011;41637;52.364;9.910;2023-12-04T00:11:05;21.90;;;17.83;;
55732;SDS011;41637;52.364;9.910;2023-12-04T00:13:32;20.92;;;16.58;;
55732;SDS011;41637;52.364;9.910;2023-12-04T00:15:59;20.33;;;16.85;;
55732;SDS011;41637;52.364;9.910;2023-12-04T00:18:26;20.70;;;16.63;;
55732;SDS011;41637;52.364;9.910;2023-12-04T00:20:54;19.88;;;16.55;;
55732;SDS011;41637;52.364;9.910;2023-12-04T00:23:20;19.35;;;16.13;;
55732;SDS011;41637;52.364;9.910;2023-12-04T00:25:47;17.67;;;15.40;;
55732;SDS011;41637;52.364;9.910;2023-12-04T00:28:14;18.08;;;14.73;;
55732;SDS011;41637;52.364;9.910;2023-12-04T00:30:41;17.83;;;15.05;;
55732;SDS011;41637;52.364;9.910;2023-12-04T00:33:08;17.50;;;14.75;;
55732;SDS011;41637;52.364;9.910;2023-12-04T00:35:35;16.85;;;14.38;;
55732;SDS011;41637;52.364;9.910;2023-12-04T00:38:02;16.80;;;14.10;;
55732;SDS011;41637;52.364;9.910;2023-12-04T00:40:29;17.67;;;14.10;;
55732;SDS011;41637;52.364;9.910;2023-12-04T00:42:56;15.93;;;13.48;;
55732;SDS011;41637;52.364;9.910;2023-12-04T00:45:23;16.80;;;14.20;;
55732;SDS011;41637;52.364;9.910;2023-12-04T00:47:50;17.83;;;14.75;;
55732;SDS011;41637;52.364;9.910;2023-12-04T00:50:17;18.65;;;15.13;;
55732;SDS011;41637;52.364;9.910;2023-12-04T00:52:44;19.83;;;15.55;;
55732;SDS011;41637;52.364;9.910;2023-12-04T00:55:11;17.77;;;14.93;;
55732;SDS011;41637;52.364;9.910;2023-12-04T00:57:38;17.70;;;15.05;;
55732;SDS011;41637;52.364;9.910;2023-12-04T01:00:05;17.05;;;14.38;;
55732;SDS011;41637;52.364;9.910;2023-12-04T01:02:33;16.95;;;14.57;;
55732;SDS011;41637;52.364;9.910;2023-12-04T01:04:59;18.27;;;14.40;;
55732;SDS011;41637;52.364;9.910;2023-12-04T01:07:27;16.30;;;13.27;;
55732;SDS011;41637;52.364;9.910;2023-12-04T01:09:54;15.75;;;13.18;;
55732;SDS011;41637;52.364;9.910;2023-12-04T01:12:21;16.35;;;14.05;;
55732;SDS011;41637;52.364;9.910;2023-12-04T01:14:48;15.98;;;12.80;;
55732;SDS011;41637;52.364;9.910;2023-12-04T01:17:15;15.02;;;12.65;;
55732;SDS011;41637;52.364;9.910;2023-12-04T01:19:42;14.50;;;12.90;;
55732;SDS011;41637;52.364;9.910;2023-12-04T01:22:09;15.77;;;13.63;;
55732;SDS011;41637;52.364;9.910;2023-12-04T01:24:35;17.30;;;13.70;;
55732;SDS011;41637;52.364;9.910;2023-12-04T01:27:02;17.67;;;14.20;;
55732;SDS011;41637;52.364;9.910;2023-12-04T01:29:29;15.90;;;13.37;;
55732;SDS011;41637;52.364;9.910;2023-12-04T01:31:58;15.63;;;12.65;;
55732;SDS011;41637;52.364;9.910;2023-12-04T01:34:25;15.23;;;12.95;;
55732;SDS011;41637;52.364;9.910;2023-12-04T01:36:52;14.60;;;12.53;;
55732;SDS011;41637;52.364;9.910;2023-12-04T01:39:19;15.77;;;13.70;;
55732;SDS011;41637;52.364;9.910;2023-12-04T01:41:46;16.75;;;13.73;;
55732;SDS011;41637;52.364;9.910;2023-12-04T01:44:12;15.65;;;12.73;;
55732;SDS011;41637;52.364;9.910;2023-12-04T01:46:39;15.07;;;12.93;;
55732;SDS011;41637;52.364;9.910;2023-12-04T01:49:06;14.50;;;12.60;;
55732;SDS011;41637;52.364;9.910;2023-12-04T01:51:34;15.98;;;13.60;;
55732;SDS011;41637;52.364;9.910;2023-12-04T01:54:02;13.95;;;12.40;;
55732;SDS011;41637;52.364;9.910;2023-12-04T01:56:32;16.25;;;13.55;;
55732;SDS011;41637;52.364;9.910;2023-12-04T01:59:00;15.60;;;13.38;;
55732;SDS011;41637;52.364;9.910;2023-12-04T02:01:27;15.63;;;13.55;;
55732;SDS011;41637;52.364;9.910;2023-12-04T02:03:55;15.70;;;13.97;;
55732;SDS011;41637;52.364;9.910;2023-12-04T02:06:23;16.08;;;13.57;;
55732;SDS011;41637;52.364;9.910;2023-12-04T02:08:51;15.52;;;13.43;;
55732;SDS011;41637;52.364;9.910;2023-12-04T02:11:18;16.02;;;14.10;;
55732;SDS011;41637;52.364;9.910;2023-12-04T02:13:45;16.65;;;14.02;;
55732;SDS011;41637;52.364;9.910;2023-12-04T02:16:12;18.58;;;14.60;;
55732;SDS011;41637;52.364;9.910;2023-12-04T02:18:42;17.02;;;14.77;;
55732;SDS011;41637;52.364;9.910;2023-12-04T02:21:09;17.17;;;14.20;;
55732;SDS011;41637;52.364;9.910;2023-12-04T02:23:39;18.20;;;15.20;;
55732;SDS011;41637;52.364;9.910;2023-12-04T02:26:10;17.63;;;14.80;;
55732;SDS011;41637;52.364;9.910;2023-12-04T02:28:42;17.27;;;14.57;;
55732;SDS011;41637;52.364;9.910;2023-12-04T02:31:14;20.40;;;16.07;;
55732;SDS011;41637;52.364;9.910;2023-12-04T02:33:44;20.42;;;16.92;;
55732;SDS011;41637;52.364;9.910;2023-12-04T02:36:13;21.27;;;17.13;;
55732;SDS011;41637;52.364;9.910;2023-12-04T02:38:40;21.48;;;16.67;;
55732;SDS011;41637;52.364;9.910;2023-12-04T02:41:07;19.83;;;16.60;;
55732;SDS011;41637;52.364;9.910;2023-12-04T02:43:35;20.60;;;16.50;;
55732;SDS011;41637;52.364;9.910;2023-12-04T02:46:02;20.75;;;16.98;;
55732;SDS011;41637;52.364;9.910;2023-12-04T02:48:29;20.33;;;16.77;;
55732;SDS011;41637;52.364;9.910;2023-12-04T02:50:56;20.65;;;17.40;;
55732;SDS011;41637;52.364;9.910;2023-12-04T02:53:23;21.92;;;17.08;;
55732;SDS011;41637;52.364;9.910;2023-12-04T02:55:50;19.73;;;16.25;;
55732;SDS011;41637;52.364;9.910;2023-12-04T02:58:16;20.02;;;16.27;;
55732;SDS011;41637;52.364;9.910;2023-12-04T03:00:43;19.60;;;15.65;;
55732;SDS011;41637;52.364;9.910;2023-12-04T03:03:11;19.00;;;15.52;;
55732;SDS011;41637;52.364;9.910;2023-12-04T03:05:37;17.67;;;15.37;;
55732;SDS011;41637;52.364;9.910;2023-12-04T03:08:04;18.42;;;15.60;;
55732;SDS011;41637;52.364;9.910;2023-12-04T03:10:31;18.50;;;15.65;;
55732;SDS011;41637;52.364;9.910;2023-12-04T03:12:58;18.35;;;15.77;;
55732;SDS011;41637;52.364;9.910;2023-12-04T03:15:25;18.63;;;15.60;;
55732;SDS011;41637;52.364;9.910;2023-12-04T03:17:58;16.58;;;14.48;;
55732;SDS011;41637;52.364;9.910;2023-12-04T03:20:31;18.30;;;15.33;;
55732;SDS011;41637;52.364;9.910;2023-12-04T03:22:59;17.90;;;15.18;;
55732;SDS011;41637;52.364;9.910;2023-12-04T03:25:25;18.95;;;15.57;;
55732;SDS011;41637;52.364;9.910;2023-12-04T03:27:52;18.70;;;15.68;;
55732;SDS011;41637;52.364;9.910;2023-12-04T03:30:19;17.17;;;15.18;;
55732;SDS011;41637;52.364;9.910;2023-12-04T03:32:46;18.23;;;15.13;;
55732;SDS011;41637;52.364;9.910;2023-12-04T03:35:13;17.27;;;14.68;;
55732;SDS011;41637;52.364;9.910;2023-12-04T03:37:40;17.50;;;14.80;;
55732;SDS011;41637;52.364;9.910;2023-12-04T03:40:07;17.58;;;14.77;;
55732;SDS011;41637;52.364;9.910;2023-12-04T03:42:34;17.75;;;14.90;;
55732;SDS011;41637;52.364;9.910;2023-12-04T03:45:01;17.53;;;14.77;;
55732;SDS011;41637;52.364;9.910;2023-12-04T03:47:28;16.50;;;13.82;;
55732;SDS011;41637;52.364;9.910;2023-12-04T03:49:55;15.97;;;14.23;;
55732;SDS011;41637;52.364;9.910;2023-12-04T03:52:22;16.65;;;13.57;;
55732;SDS011;41637;52.364;9.910;2023-12-04T03:54:49;15.98;;;13.13;;
55732;SDS011;41637;52.364;9.910;2023-12-04T03:57:16;15.57;;;13.25;;
55732;SDS011;41637;52.364;9.910;2023-12-04T03:59:43;14.45;;;11.88;;
55732;SDS011;41637;52.364;9.910;2023-12-04T04:02:10;14.32;;;12.73;;
55732;SDS011;41637;52.364;9.910;2023-12-04T04:04:37;14.57;;;12.93;;
55732;SDS011;41637;52.364;9.910;2023-12-04T04:07:03;15.27;;;12.80;;
55732;SDS011;41637;52.364;9.910;2023-12-04T04:09:30;14.13;;;12.40;;
55732;SDS011;41637;52.364;9.910;2023-12-04T04:11:57;14.75;;;12.98;;
55732;SDS011;41637;52.364;9.910;2023-12-04T04:14:24;16.60;;;12.50;;
55732;SDS011;41637;52.364;9.910;2023-12-04T04:16:51;14.73;;;12.80;;
55732;SDS011;41637;52.364;9.910;2023-12-04T04:19:17;14.43;;;12.17;;
55732;SDS011;41637;52.364;9.910;2023-12-04T04:21:44;14.27;;;12.20;;
55732;SDS011;41637;52.364;9.910;2023-12-04T04:24:11;14.65;;;12.13;;
55732;SDS011;41637;52.364;9.910;2023-12-04T04:26:38;13.98;;;11.52;;
55732;SDS011;41637;52.364;9.910;2023-12-04T04:29:05;13.05;;;11.65;;
55732;SDS011;41637;52.364;9.910;2023-12-04T04:31:31;13.30;;;11.40;;
55732;SDS011;41637;52.364;9.910;2023-12-04T04:33:58;13.97;;;11.80;;
55732;SDS011;41637;52.364;9.910;2023-12-04T04:36:25;12.88;;;11.10;;
55732;SDS011;41637;52.364;9.910;2023-12-04T04:38:53;13.03;;;11.13;;
55732;SDS011;41637;52.364;9.910;2023-12-04T04:41:20;11.73;;;10.30;;
55732;SDS011;41637;52.364;9.910;2023-12-04T04:43:46;12.57;;;10.90;;
55732;SDS011;41637;52.364;9.910;2023-12-04T04:46:13;12.27;;;10.98;;
55732;SDS011;41637;52.364;9.910;2023-12-04T04:48:40;12.97;;;11.27;;
55732;SDS011;41637;52.364;9.910;2023-12-04T04:51:07;13.90;;;11.30;;
55732;SDS011;41637;52.364;9.910;2023-12-04T04:53:34;13.75;;;11.57;;
55732;SDS011;41637;52.364;9.910;2023-12-04T04:56:01;13.02;;;11.10;;
55732;SDS011;41637;52.364;9.910;2023-12-04T04:58:27;12.82;;;11.10;;
55732;SDS011;41637;52.364;9.910;2023-12-04T05:00:54;12.23;;;10.73;;
55732;SDS011;41637;52.364;9.910;2023-12-04T05:03:21;12.63;;;11.23;;
55732;SDS011;41637;52.364;9.910;2023-12-04T05:05:50;11.60;;;10.18;;
55732;SDS011;41637;52.364;9.910;2023-12-04T05:08:17;12.30;;;9.95;;
55732;SDS011;41637;52.364;9.910;2023-12-04T05:10:44;10.80;;;9.68;;
55732;SDS011;41637;52.364;9.910;2023-12-04T05:13:11;11.45;;;9.98;;
55732;SDS011;41637;52.364;9.910;2023-12-04T05:15:37;10.80;;;9.70;;
55732;SDS011;41637;52.364;9.910;2023-12-04T05:18:04;11.68;;;9.68;;
55732;SDS011;41637;52.364;9.910;2023-12-04T05:20:31;11.02;;;9.35;;
55732;SDS011;41637;52.364;9.910;2023-12-04T05:22:58;11.13;;;9.73;;
55732;SDS011;41637;52.364;9.910;2023-12-04T05:25:25;11.00;;;9.77;;
55732;SDS011;41637;52.364;9.910;2023-12-04T05:27:59;11.10;;;9.60;;
55732;SDS011;41637;52.364;9.910;2023-12-04T05:30:26;11.23;;;9.65;;
55732;SDS011;41637;52.364;9.910;2023-12-04T05:32:53;11.93;;;9.98;;
55732;SDS011;41637;52.364;9.910;2023-12-04T05:35:22;12.00;;;10.30;;
55732;SDS011;41637;52.364;9.910;2023-12-04T05:37:49;12.30;;;10.38;;
55732;SDS011;41637;52.364;9.910;2023-12-04T05:40:16;12.98;;;11.55;;
55732;SDS011;41637;52.364;9.910;2023-12-04T05:42:43;12.70;;;11.38;;
55732;SDS011;41637;52.364;9.910;2023-12-04T05:45:10;12.60;;;11.02;;
55732;SDS011;41637;52.364;9.910;2023-12-04T05:47:37;11.45;;;10.25;;
55732;SDS011;41637;52.364;9.910;2023-12-04T05:50:04;11.73;;;10.30;;
55732;SDS011;41637;52.364;9.910;2023-12-04T05:52:31;12.05;;;10.57;;
55732;SDS011;41637;52.364;9.910;2023-12-04T05:54:58;11.85;;;10.25;;
55732;SDS011;41637;52.364;9.910;2023-12-04T05:57:25;13.35;;;11.23;;
55732;SDS011;41637;52.364;9.910;2023-12-04T05:59:52;12.67;;;11.00;;
55732;SDS011;41637;52.364;9.910;2023-12-04T06:02:18;12.55;;;10.77;;
55732;SDS011;41637;52.364;9.910;2023-12-04T06:04:45;13.32;;;10.90;;
55732;SDS011;41637;52.364;9.910;2023-12-04T06:07:12;12.35;;;10.82;;
55732;SDS011;41637;52.364;9.910;2023-12-04T06:09:39;11.75;;;10.38;;
55732;SDS011;41637;52.364;9.910;2023-12-04T06:12:06;10.82;;;9.52;;
55732;SDS011;41637;52.364;9.910;2023-12-04T06:14:35;11.48;;;10.27;;
55732;SDS011;41637;52.364;9.910;2023-12-04T06:17:02;14.27;;;12.75;;
55732;SDS011;41637;52.364;9.910;2023-12-04T06:19:29;12.00;;;9.98;;
55732;SDS011;41637;52.364;9.910;2023-12-04T06:21:56;12.05;;;10.75;;
55732;SDS011;41637;52.364;9.910;2023-12-04T06:24:23;12.00;;;10.10;;
55732;SDS011;41637;52.364;9.910;2023-12-04T06:26:51;13.02;;;10.48;;
55732;SDS011;41637;52.364;9.910;2023-12-04T06:29:18;11.02;;;9.85;;
55732;SDS011;41637;52.364;9.910;2023-12-04T06:31:45;11.68;;;10.43;;
55732;SDS011;41637;52.364;9.910;2023-12-04T06:34:13;11.63;;;10.15;;
55732;SDS011;41637;52.364;9.910;2023-12-04T06:36:40;11.55;;;10.35;;
55732;SDS011;41637;52.364;9.910;2023-12-04T06:39:11;11.82;;;10.60;;
55732;SDS011;41637;52.364;9.910;2023-12-04T06:41:39;12.75;;;10.52;;
55732;SDS011;41637;52.364;9.910;2023-12-04T06:44:07;12.23;;;10.50;;
55732;SDS011;41637;52.364;9.910;2023-12-04T06:46:36;12.27;;;10.63;;
55732;SDS011;41637;52.364;9.910;2023-12-04T06:49:05;11.67;;;10.33;;
55732;SDS011;41637;52.364;9.910;2023-12-04T06:51:35;13.32;;;11.27;;
55732;SDS011;41637;52.364;9.910;2023-12-04T06:54:02;13.45;;;11.57;;
55732;SDS011;41637;52.364;9.910;2023-12-04T06:56:29;13.30;;;11.52;;
55732;SDS011;41637;52.364;9.910;2023-12-04T06:58:56;12.70;;;11.27;;
55732;SDS011;41637;52.364;9.910;2023-12-04T07:01:22;13.88;;;11.80;;
55732;SDS011;41637;52.364;9.910;2023-12-04T07:03:49;13.80;;;11.80;;
55732;SDS011;41637;52.364;9.910;2023-12-04T07:06:16;14.00;;;12.50;;
55732;SDS011;41637;52.364;9.910;2023-12-04T07:08:44;15.75;;;13.23;;
55732;SDS011;41637;52.364;9.910;2023-12-04T07:11:11;15.15;;;12.68;;
55732;SDS011;41637;52.364;9.910;2023-12-04T07:13:41;15.50;;;12.83;;
55732;SDS011;41637;52.364;9.910;2023-12-04T07:16:08;14.10;;;12.15;;
55732;SDS011;41637;52.364;9.910;2023-12-04T07:18:35;13.68;;;11.48;;
55732;SDS011;41637;52.364;9.910;2023-12-04T07:21:02;11.85;;;10.63;;
55732;SDS011;41637;52.364;9.910;2023-12-04T07:23:30;12.48;;;10.80;;
55732;SDS011;41637;52.364;9.910;2023-12-04T07:25:57;12.33;;;10.70;;
55732;SDS011;41637;52.364;9.910;2023-12-04T07:28:23;12.95;;;11.00;;
55732;SDS011;41637;52.364;9.910;2023-12-04T07:30:51;14.85;;;11.60;;
55732;SDS011;41637;52.364;9.910;2023-12-04T07:33:17;13.05;;;11.20;;
55732;SDS011;41637;52.364;9.910;2023-12-04T07:35:44;12.95;;;10.77;;
55732;SDS011;41637;52.364;9.910;2023-12-04T07:38:11;12.52;;;11.23;;
55732;SDS011;41637;52.364;9.910;2023-12-04T07:40:38;12.27;;;10.90;;
55732;SDS011;41637;52.364;9.910;2023-12-04T07:43:04;11.80;;;10.40;;
55732;SDS011;41637;52.364;9.910;2023-12-04T07:45:31;12.80;;;11.25;;
55732;SDS011;41637;52.364;9.910;2023-12-04T07:47:58;12.68;;;11.10;;
55732;SDS011;41637;52.364;9.910;2023-12-04T07:50:25;13.20;;;11.43;;
55732;SDS011;41637;52.364;9.910;2023-12-04T07:52:52;21.52;;;17.20;;
55732;SDS011;41637;52.364;9.910;2023-12-04T07:55:18;12.65;;;11.32;;
55732;SDS011;41637;52.364;9.910;2023-12-04T07:57:45;12.10;;;10.80;;
55732;SDS011;41637;52.364;9.910;2023-12-04T08:00:12;12.30;;;10.80;;
55732;SDS011;41637;52.364;9.910;2023-12-04T08:02:40;12.45;;;11.15;;
55732;SDS011;41637;52.364;9.910;2023-12-04T08:05:08;13.10;;;11.40;;
55732;SDS011;41637;52.364;9.910;2023-12-04T08:07:36;13.60;;;11.67;;
55732;SDS011;41637;52.364;9.910;2023-12-04T08:10:03;12.23;;;10.93;;
55732;SDS011;41637;52.364;9.910;2023-12-04T08:12:31;12.30;;;10.98;;
55732;SDS011;41637;52.364;9.910;2023-12-04T08:14:58;11.98;;;10.73;;
55732;SDS011;41637;52.364;9.910;2023-12-04T08:17:24;12.52;;;11.10;;
55732;SDS011;41637;52.364;9.910;2023-12-04T08:19:51;13.02;;;11.13;;
55732;SDS011;41637;52.364;9.910;2023-12-04T08:22:19;13.75;;;11.52;;
55732;SDS011;41637;52.364;9.910;2023-12-04T08:24:46;13.47;;;11.80;;
55732;SDS011;41637;52.364;9.910;2023-12-04T08:27:13;14.32;;;12.20;;
55732;SDS011;41637;52.364;9.910;2023-12-04T08:29:39;14.10;;;12.38;;
55732;SDS011;41637;52.364;9.910;2023-12-04T08:32:07;14.00;;;12.50;;
55732;SDS011;41637;52.364;9.910;2023-12-04T08:34:33;14.60;;;11.93;;
55732;SDS011;41637;52.364;9.910;2023-12-04T08:37:01;13.95;;;12.20;;
55732;SDS011;41637;52.364;9.910;2023-12-04T08:39:28;13.23;;;11.80;;
55732;SDS011;41637;52.364;9.910;2023-12-04T08:41:55;13.38;;;11.75;;
55732;SDS011;41637;52.364;9.910;2023-12-04T08:44:30;13.57;;;12.13;;
55732;SDS011;41637;52.364;9.910;2023-12-04T08:46:56;14.05;;;12.43;;
55732;SDS011;41637;52.364;9.910;2023-12-04T08:49:24;13.95;;;11.40;;
55732;SDS011;41637;52.364;9.910;2023-12-04T08:52:05;13.57;;;11.65;;
55732;SDS011;41637;52.364;9.910;2023-12-04T08:54:32;13.77;;;12.27;;
55732;SDS011;41637;52.364;9.910;2023-12-04T08:56:59;12.30;;;11.00;;
55732;SDS011;41637;52.364;9.910;2023-12-04T08:59:26;14.32;;;11.75;;
55732;SDS011;41637;52.364;9.910;2023-12-04T09:01:54;13.70;;;12.18;;
55732;SDS011;41637;52.364;9.910;2023-12-04T09:04:21;13.10;;;11.70;;
55732;SDS011;41637;52.364;9.910;2023-12-04T09:06:48;13.95;;;12.30;;
55732;SDS011;41637;52.364;9.910;2023-12-04T09:09:18;14.67;;;12.27;;
55732;SDS011;41637;52.364;9.910;2023-12-04T09:11:45;13.68;;;12.13;;
55732;SDS011;41637;52.364;9.910;2023-12-04T09:14:12;14.48;;;12.98;;
55732;SDS011;41637;52.364;9.910;2023-12-04T09:16:39;14.70;;;13.10;;
55732;SDS011;41637;52.364;9.910;2023-12-04T09:19:06;13.47;;;12.07;;
55732;SDS011;41637;52.364;9.910;2023-12-04T09:21:33;14.25;;;12.32;;
55732;SDS011;41637;52.364;9.910;2023-12-04T09:24:00;13.05;;;11.75;;
55732;SDS011;41637;52.364;9.910;2023-12-04T09:26:27;20.10;;;17.13;;
55732;SDS011;41637;52.364;9.910;2023-12-04T09:28:54;13.10;;;11.52;;
55732;SDS011;41637;52.364;9.910;2023-12-04T09:31:20;13.27;;;11.82;;
55732;SDS011;41637;52.364;9.910;2023-12-04T09:33:47;11.75;;;10.55;;
55732;SDS011;41637;52.364;9.910;2023-12-04T09:36:14;11.52;;;10.32;;
55732;SDS011;41637;52.364;9.910;2023-12-04T09:38:42;11.85;;;10.63;;
55732;SDS011;41637;52.364;9.910;2023-12-04T09:41:09;12.20;;;10.70;;
55732;SDS011;41637;52.364;9.910;2023-12-04T09:43:38;11.52;;;10.13;;
55732;SDS011;41637;52.364;9.910;2023-12-04T09:46:08;12.27;;;10.88;;
55732;SDS011;41637;52.364;9.910;2023-12-04T09:48:40;11.65;;;10.43;;
55732;SDS011;41637;52.364;9.910;2023-12-04T09:51:10;11.80;;;10.55;;
55732;SDS011;41637;52.364;9.910;2023-12-04T09:53:37;11.23;;;10.03;;
55732;SDS011;41637;52.364;9.910;2023-12-04T09:56:06;11.00;;;9.90;;
55732;SDS011;41637;52.364;9.910;2023-12-04T09:58:36;11.25;;;10.05;;
55732;SDS011;41637;52.364;9.910;2023-12-04T10:01:07;12.18;;;10.57;;
55732;SDS011;41637;52.364;9.910;2023-12-04T10:03:34;11.27;;;9.68;;
55732;SDS011;41637;52.364;9.910;2023-12-04T10:06:02;11.20;;;9.65;;
55732;SDS011;41637;52.364;9.910;2023-12-04T10:08:30;10.70;;;9.60;;
55732;SDS011;41637;52.364;9.910;2023-12-04T10:10:57;11.20;;;9.40;;
55732;SDS011;41637;52.364;9.910;2023-12-04T10:13:25;10.03;;;8.80;;
55732;SDS011;41637;52.364;9.910;2023-12-04T10:16:13;12.48;;;10.23;;
55732;SDS011;41637;52.364;9.910;2023-12-04T10:18:40;10.05;;;8.93;;
55732;SDS011;41637;52.364;9.910;2023-12-04T10:21:07;11.43;;;9.93;;
55732;SDS011;41637;52.364;9.910;2023-12-04T10:23:43;11.77;;;9.53;;
55732;SDS011;41637;52.364;9.910;2023-12-04T10:26:14;10.60;;;9.20;;
55732;SDS011;41637;52.364;9.910;2023-12-04T10:28:58;9.35;;;8.15;;
55732;SDS011;41637;52.364;9.910;2023-12-04T10:31:32;8.80;;;7.90;;
55732;SDS011;41637;52.364;9.910;2023-12-04T10:34:01;9.25;;;7.90;;
55732;SDS011;41637;52.364;9.910;2023-12-04T10:36:29;9.40;;;8.25;;
55732;SDS011;41637;52.364;9.910;2023-12-04T10:38:59;9.20;;;8.20;;
55732;SDS011;41637;52.364;9.910;2023-12-04T10:41:27;9.35;;;8.15;;
55732;SDS011;41637;52.364;9.910;2023-12-04T10:43:54;9.35;;;8.35;;
55732;SDS011;41637;52.364;9.910;2023-12-04T10:46:32;8.68;;;7.78;;
55732;SDS011;41637;52.364;9.910;2023-12-04T10:49:03;8.15;;;7.35;;
55732;SDS011;41637;52.364;9.910;2023-12-04T10:51:32;9.70;;;7.80;;
55732;SDS011;41637;52.364;9.910;2023-12-04T10:54:01;9.02;;;8.13;;
55732;SDS011;41637;52.364;9.910;2023-12-04T10:56:38;9.38;;;8.15;;
55732;SDS011;41637;52.364;9.910;2023-12-04T10:59:12;8.63;;;7.63;;
55732;SDS011;41637;52.364;9.910;2023-12-04T11:01:42;9.38;;;8.02;;
55732;SDS011;41637;52.364;9.910;2023-12-04T11:04:13;8.90;;;8.00;;
55732;SDS011;41637;52.364;9.910;2023-12-04T11:06:45;10.18;;;8.63;;
55732;SDS011;41637;52.364;9.910;2023-12-04T11:09:16;9.27;;;8.35;;
55732;SDS011;41637;52.364;9.910;2023-12-04T11:11:46;9.20;;;8.13;;
55732;SDS011;41637;52.364;9.910;2023-12-04T11:14:20;8.90;;;7.97;;
55732;SDS011;41637;52.364;9.910;2023-12-04T11:16:54;10.07;;;8.65;;
55732;SDS011;41637;52.364;9.910;2023-12-04T11:22:22;8.90;;;7.93;;
55732;SDS011;41637;52.364;9.910;2023-12-04T11:24:52;12.37;;;8.27;;
55732;SDS011;41637;52.364;9.910;2023-12-04T11:27:19;10.20;;;8.45;;
55732;SDS011;41637;52.364;9.910;2023-12-04T11:29:47;12.63;;;9.80;;
55732;SDS011;41637;52.364;9.910;2023-12-04T11:32:15;12.35;;;9.55;;
55732;SDS011;41637;52.364;9.910;2023-12-04T11:35:06;12.80;;;9.40;;
55732;SDS011;41637;52.364;9.910;2023-12-04T11:37:39;12.40;;;9.65;;
55732;SDS011;41637;52.364;9.910;2023-12-04T11:40:07;13.30;;;10.57;;
55732;SDS011;41637;52.364;9.910;2023-12-04T11:42:34;12.35;;;10.20;;
55732;SDS011;41637;52.364;9.910;2023-12-04T11:45:02;11.93;;;10.02;;
55732;SDS011;41637;52.364;9.910;2023-12-04T11:47:29;12.27;;;9.82;;
55732;SDS011;41637;52.364;9.910;2023-12-04T11:49:57;11.25;;;9.85;;
55732;SDS011;41637;52.364;9.910;2023-12-04T11:52:33;11.52;;;9.65;;
55732;SDS011;41637;52.364;9.910;2023-12-04T11:55:03;10.35;;;8.85;;
55732;SDS011;41637;52.364;9.910;2023-12-04T11:57:34;9.93;;;8.50;;
55732;SDS011;41637;52.364;9.910;2023-12-04T12:05:39;10.35;;;8.90;;
55732;SDS011;41637;52.364;9.910;2023-12-04T12:08:08;9.40;;;7.93;;
55732;SDS011;41637;52.364;9.910;2023-12-04T12:10:35;9.07;;;7.93;;
55732;SDS011;41637;52.364;9.910;2023-12-04T12:13:02;8.40;;;7.25;;
55732;SDS011;41637;52.364;9.910;2023-12-04T12:15:31;8.50;;;7.60;;
55732;SDS011;41637;52.364;9.910;2023-12-04T12:17:59;8.40;;;6.95;;
55732;SDS011;41637;52.364;9.910;2023-12-04T12:20:26;9.45;;;7.05;;
55732;SDS011;41637;52.364;9.910;2023-12-04T12:22:53;7.95;;;7.15;;
55732;SDS011;41637;52.364;9.910;2023-12-04T12:25:20;7.15;;;6.45;;
55732;SDS011;41637;52.364;9.910;2023-12-04T12:27:50;8.68;;;6.80;;
55732;SDS011;41637;52.364;9.910;2023-12-04T12:30:17;9.13;;;6.75;;
55732;SDS011;41637;52.364;9.910;2023-12-04T12:32:43;8.00;;;6.82;;
55732;SDS011;41637;52.364;9.910;2023-12-04T12:35:10;7.32;;;6.53;;
55732;SDS011;41637;52.364;9.910;2023-12-04T12:37:38;7.70;;;6.57;;
55732;SDS011;41637;52.364;9.910;2023-12-04T12:40:06;7.90;;;6.57;;
55732;SDS011;41637;52.364;9.910;2023-12-04T12:42:37;8.73;;;6.78;;
55732;SDS011;41637;52.364;9.910;2023-12-04T12:45:13;8.27;;;6.67;;
55732;SDS011;41637;52.364;9.910;2023-12-04T12:47:40;8.23;;;6.47;;
55732;SDS011;41637;52.364;9.910;2023-12-04T12:50:08;7.78;;;6.35;;
55732;SDS011;41637;52.364;9.910;2023-12-04T12:52:37;7.40;;;6.43;;
55732;SDS011;41637;52.364;9.910;2023-12-04T12:55:04;8.05;;;6.40;;
55732;SDS011;41637;52.364;9.910;2023-12-04T12:57:31;7.70;;;6.47;;
55732;SDS011;41637;52.364;9.910;2023-12-04T12:59:59;7.85;;;6.90;;
55732;SDS011;41637;52.364;9.910;2023-12-04T13:02:26;6.88;;;5.97;;
55732;SDS011;41637;52.364;9.910;2023-12-04T13:04:53;7.90;;;6.65;;
55732;SDS011;41637;52.364;9.910;2023-12-04T13:07:22;7.25;;;6.10;;
55732;SDS011;41637;52.364;9.910;2023-12-04T13:09:49;8.10;;;6.07;;
55732;SDS011;41637;52.364;9.910;2023-12-04T13:12:16;6.97;;;6.28;;
55732;SDS011;41637;52.364;9.910;2023-12-04T13:14:43;7.70;;;6.47;;
55732;SDS011;41637;52.364;9.910;2023-12-04T13:17:10;7.75;;;6.68;;
55732;SDS011;41637;52.364;9.910;2023-12-04T13:19:37;7.07;;;5.97;;
55732;SDS011;41637;52.364;9.910;2023-12-04T13:22:04;7.47;;;6.05;;
55732;SDS011;41637;52.364;9.910;2023-12-04T13:24:31;8.73;;;6.43;;
55732;SDS011;41637;52.364;9.910;2023-12-04T13:26:58;6.80;;;5.68;;
55732;SDS011;41637;52.364;9.910;2023-12-04T13:29:25;8.25;;;6.63;;
55732;SDS011;41637;52.364;9.910;2023-12-04T13:31:51;7.85;;;6.13;;
55732;SDS011;41637;52.364;9.910;2023-12-04T13:34:19;24.88;;;19.00;;
55732;SDS011;41637;52.364;9.910;2023-12-04T13:36:46;7.82;;;6.40;;
55732;SDS011;41637;52.364;9.910;2023-12-04T13:39:13;8.88;;;7.85;;
55732;SDS011;41637;52.364;9.910;2023-12-04T13:41:44;12.23;;;8.77;;
55732;SDS011;41637;52.364;9.910;2023-12-04T13:44:30;12.02;;;8.70;;
55732;SDS011;41637;52.364;9.910;2023-12-04T13:46:58;9.25;;;8.05;;
55732;SDS011;41637;52.364;9.910;2023-12-04T13:49:25;11.20;;;9.15;;
55732;SDS011;41637;52.364;9.910;2023-12-04T13:51:52;23.23;;;18.67;;
55732;SDS011;41637;52.364;9.910;2023-12-04T13:54:20;15.25;;;12.80;;
55732;SDS011;41637;52.364;9.910;2023-12-04T13:56:52;12.77;;;9.68;;
55732;SDS011;41637;52.364;9.910;2023-12-04T13:59:20;11.75;;;9.45;;
55732;SDS011;41637;52.364;9.910;2023-12-04T14:01:48;10.70;;;9.30;;
55732;SDS011;41637;52.364;9.910;2023-12-04T14:04:22;10.23;;;9.02;;
55732;SDS011;41637;52.364;9.910;2023-12-04T14:06:52;11.88;;;9.73;;
55732;SDS011;41637;52.364;9.910;2023-12-04T14:09:19;11.98;;;9.60;;
55732;SDS011;41637;52.364;9.910;2023-12-04T14:11:46;11.93;;;9.77;;
55732;SDS011;41637;52.364;9.910;2023-12-04T14:14:14;12.38;;;9.73;;
55732;SDS011;41637;52.364;9.910;2023-12-04T14:16:41;11.60;;;10.23;;
55732;SDS011;41637;52.364;9.910;2023-12-04T14:19:08;12.10;;;9.55;;
55732;SDS011;41637;52.364;9.910;2023-12-04T14:21:35;12.60;;;9.65;;
55732;SDS011;41637;52.364;9.910;2023-12-04T14:24:03;11.55;;;10.25;;
55732;SDS011;41637;52.364;9.910;2023-12-04T14:26:30;12.15;;;10.23;;
55732;SDS011;41637;52.364;9.910;2023-12-04T14:28:57;12.18;;;10.48;;
55732;SDS011;41637;52.364;9.910;2023-12-04T14:31:27;11.60;;;10.10;;
55732;SDS011;41637;52.364;9.910;2023-12-04T14:33:54;12.68;;;10.15;;
55732;SDS011;41637;52.364;9.910;2023-12-04T14:36:21;11.00;;;9.83;;
55732;SDS011;41637;52.364;9.910;2023-12-04T14:38:48;12.05;;;10.00;;
55732;SDS011;41637;52.364;9.910;2023-12-04T14:41:15;9.90;;;8.90;;